CYGV

Havre St Pierre Airport

Havre St-Pierre, Quebec, Canada
TAF CYGV 150738Z 1508/1520 30015G25KT P6SM SKC BECMG 1518/1520 30015G25KT RMK FCST BASED ON AUTO OBS. NXT FCST BY 151400Z
Issued Valid From Valid To
Nov-15 @ 07:38 UTC
(6 hours ago)
Nov-15 @ 08:00 UTC
(5 hours ago)
Nov-15 @ 20:00 UTC
(in 7 hours)
Nov-15 @ 08:00 to Nov-15 @ 18:00
TAF CYGV 150738Z 1508/1520 30015G25KT P6SM SKC
Wind Visibility Clouds
300° at 15 knots
 Gusting to 25 knots
Greater than 6 miles
  • Clear skies
Becoming Nov-15 @ 18:00 to Nov-15 @ 20:00
BECMG 1518/1520 30015G25KT RMK FCST BASED ON AUTO OBS. NXT FCST BY 151400Z
Wind Visibility Clouds
300° at 15 knots
 Gusting to 25 knots
Greater than 6 miles
  • Clear skies
TAF CYGV 150738Z 1508/1520 30015G25KT P6SM SKC BECMG 1518/1520 30015G25KT RMK FCST BASED ON AUTO OBS. NXT FCST BY 151400Z
Issued Nov-15 @ 07:38 UTC
(6 hours ago)
Valid From Nov-15 @ 08:00 UTC
(5 hours ago)
Valid To Nov-15 @ 20:00 UTC
(in 7 hours)
Nov-15 @ 08:00 - Nov-15 @ 18:00
Wind Visibility
300° at 15 knots
 Gusting to 25 knots
Greater than 6 miles
Clouds
  • Clear skies
Becoming Nov-15 @ 18:00 - Nov-15 @ 20:00
Wind Visibility
300° at 15 knots
 Gusting to 25 knots
Greater than 6 miles
Clouds
  • Clear skies